Pine Apple, Alabama
Current Conditions -  °F | °C
As of 1:56 PM on Friday 19 Dec 2014 (Local Time) from KPRN Reporting Station
Scattered Clouds Scattered Clouds  
Wind Chill: 54°   Ceiling: Unl
Heat Index: 54°   Visibility: 10mi
Dew Point: 35°   Wind: 8mph
Humidity: 49%   Direction: 30°NNE
Pressure: 30.09"   Gusts: NA
Location:  31.87°N, 86.99°W
Report Text: KPRN 191956Z AUTO 03007KT 10SM SCT120 12/02 A3009 RMK AO2 SLP187 T01220017
Loading
Personal Weather Stations






























Interactive Weather Map New forecast layout! Learn more

10-Day Weather Forecast

Advertisements
Track Severe Weather on mobile